Time;durP1;ratioP1;P1;durP2;ratioP2;P2;SDS_P1;SDS_P2;PMS_P1;PMS_P2;Temp;Humidity;BMP_temperature;BMP_pressure;BME280_temperature;BME280_humidity;BME280_pressure;Samples;Min_cycle;Max_cycle;Signal;HPM_P1;HPM_P2
2024/02/06 00:01:23;;;;;;;;;;;;;;;7.04;100.00;99995.31;5053245;28;20548;-80
2024/02/06 00:03:57;;;;;;;;;;;;;;;7.08;100.00;100001.00;5027324;28;19929;-80
2024/02/06 00:06:30;;;;;;;;;;;;;;;7.10;100.00;99990.75;5043476;28;19943;-80
2024/02/06 00:09:03;;;;;;;;;;;;;;;7.12;100.00;99989.34;5029414;28;19931;-79
2024/02/06 00:11:36;;;;;;;;;;;;;;;7.07;100.00;99985.84;5030152;28;19921;-80
2024/02/06 00:14:04;;;;;;;;;;;;;;;7.08;100.00;99991.00;5026075;28;19925;-80
2024/02/06 00:16:32;;;;;;;;;;;;;;;7.08;100.00;99996.41;5039512;28;19932;-79
2024/02/06 00:19:01;;;;;;;;;;;;;;;7.09;100.00;99998.03;5041277;28;19932;-79
2024/02/06 00:21:34;;;;;;;;;;;;;;;7.05;100.00;99994.25;5046243;28;19921;-80
2024/02/06 00:24:07;;;;;;;;;;;;;;;7.09;100.00;99992.63;5041743;28;19925;-79
2024/02/06 00:26:35;;;;;;;;;;;;;;;7.07;100.00;99989.38;5042905;28;19924;-80
2024/02/06 00:29:08;;;;;;;;;;;;;;;7.06;100.00;99985.06;5033351;28;19931;-79
2024/02/06 00:31:41;;;;;;;;;;;;;;;7.11;100.00;99984.22;5027669;28;19925;-80
2024/02/06 00:34:11;;;;;;;;;;;;;;;7.14;100.00;99979.09;5026776;28;19949;-79
2024/02/06 00:36:39;;;;;;;;;;;;;;;7.10;100.00;99963.69;5045687;28;19925;-80
2024/02/06 00:39:12;;;;;;;;;;;;;;;7.19;100.00;99948.47;5055671;28;19928;-79
2024/02/06 00:41:45;;;;;;;;;;;;;;;7.17;100.00;99958.78;5041207;28;19927;-79
2024/02/06 00:44:13;;;;;;;;;;;;;;;7.19;100.00;99951.19;5043094;28;20381;-79
2024/02/06 00:46:46;;;;;;;;;;;;;;;7.19;100.00;99947.69;5038047;28;20476;-79
2024/02/06 00:49:21;;;;;;;;;;;;;;;7.26;100.00;99940.88;5043660;28;19928;-79
2024/02/06 00:51:53;;;;;;;;;;;;;;;7.27;100.00;99955.25;5040281;28;20270;-79
2024/02/06 00:54:26;;;;;;;;;;;;;;;7.21;100.00;99945.50;5039380;28;19947;-79
2024/02/06 00:56:59;;;;;;;;;;;;;;;7.27;100.00;99928.19;5037237;28;20376;-79
2024/02/06 00:59:32;;;;;;;;;;;;;;;7.25;100.00;99931.16;5040884;28;19929;-80
2024/02/06 01:02:00;;;;;;;;;;;;;;;7.24;100.00;99940.34;5038343;28;20392;-79
2024/02/06 01:04:35;;;;;;;;;;;;;;;7.26;100.00;99932.75;5039764;28;19935;-80
2024/02/06 01:07:08;;;;;;;;;;;;;;;7.25;100.00;99923.03;5039905;28;19925;-79
2024/02/06 01:09:36;;;;;;;;;;;;;;;7.32;100.00;99917.34;5035341;28;19924;-79
2024/02/06 01:12:04;;;;;;;;;;;;;;;7.28;100.00;99930.59;5038022;28;19951;-79
2024/02/06 01:14:37;;;;;;;;;;;;;;;7.35;100.00;99915.94;5040032;28;20558;-79
2024/02/06 01:17:05;;;;;;;;;;;;;;;7.37;100.00;99911.88;5036624;28;20385;-79
2024/02/06 01:19:35;;;;;;;;;;;;;;;7.36;100.00;99914.88;5039769;28;20654;-79
2024/02/06 01:22:08;;;;;;;;;;;;;;;7.35;100.00;99916.78;5038727;28;19940;-79
2024/02/06 01:24:35;;;;;;;;;;;;;;;7.35;100.00;99918.66;5041337;28;19924;-78
2024/02/06 01:27:04;;;;;;;;;;;;;;;7.34;100.00;99904.31;5037130;28;19932;-79
2024/02/06 01:29:37;;;;;;;;;;;;;;;7.40;100.00;99897.00;5038739;28;19925;-79
2024/02/06 01:32:10;;;;;;;;;;;;;;;7.38;100.00;99910.00;5057472;28;19920;-79
2024/02/06 01:34:44;;;;;;;;;;;;;;;7.40;100.00;99894.28;5037345;28;20416;-79
2024/02/06 01:37:17;;;;;;;;;;;;;;;7.41;100.00;99902.13;5034865;28;19921;-79
2024/02/06 01:39:50;;;;;;;;;;;;;;;7.46;100.00;99904.00;5021877;28;20301;-79
2024/02/06 01:42:18;;;;;;;;;;;;;;;7.46;100.00;99893.97;5037103;28;19967;-79
2024/02/06 01:44:51;;;;;;;;;;;;;;;7.41;100.00;99904.03;5035045;28;19936;-79
2024/02/06 01:47:24;;;;;;;;;;;;;;;7.42;100.00;99894.81;5037330;28;19932;-79
2024/02/06 01:49:59;;;;;;;;;;;;;;;7.43;100.00;99901.84;5039508;28;19929;-79
2024/02/06 01:52:32;;;;;;;;;;;;;;;7.44;100.00;99901.59;5037793;28;19955;-79
2024/02/06 01:55:06;;;;;;;;;;;;;;;7.40;100.00;99895.09;5036790;28;19928;-79
2024/02/06 01:57:39;;;;;;;;;;;;;;;7.45;100.00;99896.97;5034672;28;19932;-79
2024/02/06 02:00:07;;;;;;;;;;;;;;;7.43;100.00;99893.72;5038031;28;19936;-79
2024/02/06 02:02:41;;;;;;;;;;;;;;;7.51;100.00;99897.75;5021321;28;19931;-79
2024/02/06 02:05:16;;;;;;;;;;;;;;;7.45;100.00;99886.16;5038392;28;19932;-79
2024/02/06 02:07:44;;;;;;;;;;;;;;;7.44;100.00;99876.41;5035453;28;20593;-79
2024/02/06 02:10:17;;;;;;;;;;;;;;;7.47;100.00;99889.38;5038787;28;19924;-79
2024/02/06 02:12:50;;;;;;;;;;;;;;;7.44;100.00;99879.94;5019107;28;19932;-79
2024/02/06 02:15:23;;;;;;;;;;;;;;;7.38;100.00;99870.19;5038702;28;19928;-79
2024/02/06 02:17:56;;;;;;;;;;;;;;;7.38;100.00;99875.63;5036756;28;19931;-79
2024/02/06 02:20:30;;;;;;;;;;;;;;;7.43;100.00;99875.59;5056282;28;19928;-79
2024/02/06 02:23:05;;;;;;;;;;;;;;;7.40;100.00;99861.78;5036970;28;19936;-78
2024/02/06 02:25:38;;;;;;;;;;;;;;;7.46;100.00;99877.75;5037399;28;20520;-79
2024/02/06 02:28:06;;;;;;;;;;;;;;;7.49;100.00;99879.09;5037810;28;19920;-78
2024/02/06 02:30:35;;;;;;;;;;;;;;;7.45;100.00;99861.78;5054527;28;19936;-79
2024/02/06 02:33:09;;;;;;;;;;;;;;;7.50;100.00;99859.06;5037774;28;19931;-78
2024/02/06 02:35:37;;;;;;;;;;;;;;;7.48;100.00;99861.22;5037856;28;19925;-78
2024/02/06 02:38:06;;;;;;;;;;;;;;;7.44;100.00;99854.75;5037163;28;19924;-79
2024/02/06 02:40:39;;;;;;;;;;;;;;;7.43;100.00;99859.34;5034210;28;20272;-78
2024/02/06 02:43:12;;;;;;;;;;;;;;;7.50;100.00;99856.34;5022498;28;19921;-78
2024/02/06 02:45:45;;;;;;;;;;;;;;;7.49;100.00;99852.81;5036711;28;19925;-79
2024/02/06 02:48:18;;;;;;;;;;;;;;;7.47;100.00;99835.22;5020537;28;19932;-79
2024/02/06 02:50:46;;;;;;;;;;;;;;;7.45;100.00;99846.34;5024268;28;19943;-79
2024/02/06 02:53:21;;;;;;;;;;;;;;;7.44;100.00;99838.50;5038960;28;19924;-79
2024/02/06 02:55:49;;;;;;;;;;;;;;;7.46;100.00;99841.75;5036497;28;20296;-79
2024/02/06 02:58:17;;;;;;;;;;;;;;;7.49;100.00;99841.97;5036127;28;19932;-79
2024/02/06 03:00:50;;;;;;;;;;;;;;;7.48;100.00;99834.97;5036050;28;19932;-79
2024/02/06 03:03:23;;;;;;;;;;;;;;;7.46;100.00;99828.22;5056566;28;19924;-79
2024/02/06 03:05:56;;;;;;;;;;;;;;;7.51;100.00;99820.03;5040641;28;19928;-78
2024/02/06 03:08:25;;;;;;;;;;;;;;;7.49;100.00;99817.63;5038977;28;20374;-78
2024/02/06 03:10:53;;;;;;;;;;;;;;;7.45;100.00;99813.06;5038142;28;19924;-79
2024/02/06 03:13:22;;;;;;;;;;;;;;;7.46;100.00;99803.84;5036092;28;19921;-79
2024/02/06 03:15:55;;;;;;;;;;;;;;;7.49;100.00;99789.75;5037438;28;19924;-78
2024/02/06 03:18:23;;;;;;;;;;;;;;;7.52;100.00;99805.41;5023213;28;19939;-78
2024/02/06 03:20:51;;;;;;;;;;;;;;;7.50;100.00;99788.66;5036795;28;20397;-79
2024/02/06 03:23:25;;;;;;;;;;;;;;;7.49;100.00;99795.94;5037296;28;20722;-78
2024/02/06 03:25:59;;;;;;;;;;;;;;;7.52;100.00;99785.66;5035424;28;19935;-79
2024/02/06 03:28:26;;;;;;;;;;;;;;;7.52;100.00;99785.66;5037132;28;19924;-79
2024/02/06 03:30:59;;;;;;;;;;;;;;;7.61;100.00;99790.19;5056712;28;19924;-79
2024/02/06 03:33:27;;;;;;;;;;;;;;;7.57;100.00;99789.16;5037067;28;20385;-79
2024/02/06 03:35:55;;;;;;;;;;;;;;;7.56;100.00;99789.44;5045888;28;19931;-78
2024/02/06 03:38:30;;;;;;;;;;;;;;;7.52;100.00;99782.97;5040854;28;19921;-79
2024/02/06 03:40:57;;;;;;;;;;;;;;;7.51;100.00;99784.03;5056723;28;19954;-78
2024/02/06 03:43:30;;;;;;;;;;;;;;;7.52;100.00;99788.38;5056488;28;19932;-79
2024/02/06 03:45:58;;;;;;;;;;;;;;;7.58;100.00;99776.41;5038361;28;19953;-79
2024/02/06 03:48:34;;;;;;;;;;;;;;;7.51;100.00;99771.31;5041972;28;19948;-79
2024/02/06 03:51:03;;;;;;;;;;;;;;;7.51;100.00;99765.88;5019992;28;19976;-79
2024/02/06 03:53:37;;;;;;;;;;;;;;;7.56;100.00;99773.97;5037761;28;19936;-78
2024/02/06 03:56:05;;;;;;;;;;;;;;;7.59;100.00;99761.78;5038691;28;19946;-79
2024/02/06 03:58:33;;;;;;;;;;;;;;;7.55;100.00;99771.56;5040033;28;19925;-78
2024/02/06 04:01:06;;;;;;;;;;;;;;;7.52;100.00;99767.50;5037374;28;19931;-79
2024/02/06 04:03:34;;;;;;;;;;;;;;;7.64;100.00;99769.88;5040630;28;20182;-79
2024/02/06 04:06:02;;;;;;;;;;;;;;;7.59;100.00;99781.53;5036508;28;20292;-79
2024/02/06 04:08:36;;;;;;;;;;;;;;;7.61;100.00;99778.53;5039985;28;19929;-79
2024/02/06 04:11:11;;;;;;;;;;;;;;;7.60;100.00;99774.25;5039695;28;20602;-79
2024/02/06 04:13:44;;;;;;;;;;;;;;;7.61;100.00;99770.41;5037348;28;19931;-78
2024/02/06 04:16:17;;;;;;;;;;;;;;;7.65;100.00;99774.19;5038983;28;19924;-78
2024/02/06 04:18:45;;;;;;;;;;;;;;;7.64;100.00;99764.47;5039273;28;19936;-79
2024/02/06 04:21:13;;;;;;;;;;;;;;;7.55;100.00;99758.81;5021937;28;19947;-79
2024/02/06 04:23:47;;;;;;;;;;;;;;;7.64;100.00;99769.88;5023057;28;20388;-78
2024/02/06 04:26:20;;;;;;;;;;;;;;;7.70;100.00;99760.59;5041465;28;20004;-78
2024/02/06 04:28:48;;;;;;;;;;;;;;;7.72;100.00;99761.16;5042310;28;19921;-78
2024/02/06 04:31:21;;;;;;;;;;;;;;;7.73;100.00;99759.25;5038854;28;19928;-79
2024/02/06 04:33:54;;;;;;;;;;;;;;;7.69;100.00;99750.06;5036054;28;20593;-79
2024/02/06 04:36:27;;;;;;;;;;;;;;;7.70;100.00;99754.41;5041645;28;19924;-79
2024/02/06 04:39:01;;;;;;;;;;;;;;;7.70;100.00;99735.44;5043226;28;19931;-78
2024/02/06 04:41:29;;;;;;;;;;;;;;;7.71;100.00;99750.59;5037933;28;19925;-79
2024/02/06 04:43:57;;;;;;;;;;;;;;;7.73;100.00;99735.66;5038506;28;19924;-78
2024/02/06 04:46:30;;;;;;;;;;;;;;;7.75;100.00;99749.75;5056475;28;19925;-78
2024/02/06 04:49:03;;;;;;;;;;;;;;;7.74;100.00;99736.47;5024472;28;20390;-79
2024/02/06 04:51:33;;;;;;;;;;;;;;;7.66;100.00;99721.66;5041072;28;19948;-78
2024/02/06 04:54:07;;;;;;;;;;;;;;;7.71;100.00;99737.06;5040911;28;19935;-78
2024/02/06 04:56:40;;;;;;;;;;;;;;;7.66;100.00;99722.47;5039834;28;19932;-78
2024/02/06 04:59:13;;;;;;;;;;;;;;;7.69;100.00;99717.56;5034305;28;19920;-78
2024/02/06 05:01:41;;;;;;;;;;;;;;;7.64;100.00;99724.63;5040170;28;19924;-79
2024/02/06 05:04:11;;;;;;;;;;;;;;;7.73;100.00;99713.19;5037321;28;20108;-79
2024/02/06 05:06:39;;;;;;;;;;;;;;;7.66;100.00;99716.22;5037352;28;19925;-79
2024/02/06 05:09:13;;;;;;;;;;;;;;;7.71;100.00;99701.84;5029235;28;20381;-79
2024/02/06 05:11:46;;;;;;;;;;;;;;;7.71;100.00;99718.91;5040504;28;19929;-79
2024/02/06 05:14:14;;;;;;;;;;;;;;;7.69;100.00;99704.81;5022859;28;19950;-79
2024/02/06 05:16:42;;;;;;;;;;;;;;;7.65;100.00;99709.19;5037581;28;19933;-79
2024/02/06 05:19:13;;;;;;;;;;;;;;;7.69;100.00;99699.41;5037249;28;19932;-78
2024/02/06 05:21:46;;;;;;;;;;;;;;;7.71;100.00;99704.56;5026359;28;19929;-78
2024/02/06 05:24:21;;;;;;;;;;;;;;;7.69;100.00;99685.88;5036702;28;19925;-79
2024/02/06 05:26:54;;;;;;;;;;;;;;;7.64;100.00;99694.84;5039453;28;19932;-78
2024/02/06 05:29:27;;;;;;;;;;;;;;;7.69;100.00;99685.06;5037627;28;19929;-79
2024/02/06 05:32:00;;;;;;;;;;;;;;;7.68;100.00;99697.81;5036455;28;19925;-78
2024/02/06 05:34:33;;;;;;;;;;;;;;;7.74;100.00;99688.53;5039609;28;19928;-78
2024/02/06 05:37:01;;;;;;;;;;;;;;;7.74;100.00;99683.13;5025460;28;19925;-78
2024/02/06 05:39:35;;;;;;;;;;;;;;;7.70;100.00;99681.28;5039349;28;19925;-78
2024/02/06 05:42:08;;;;;;;;;;;;;;;7.60;100.00;99696.50;5040919;28;20312;-78
2024/02/06 05:44:41;;;;;;;;;;;;;;;7.65;100.00;99682.94;5036449;28;19963;-78
2024/02/06 05:47:14;;;;;;;;;;;;;;;7.71;100.00;99667.44;5036791;28;19920;-78
2024/02/06 05:49:42;;;;;;;;;;;;;;;7.73;100.00;99676.06;5039894;28;20389;-79
2024/02/06 05:52:15;;;;;;;;;;;;;;;7.75;100.00;99676.63;5037145;28;19928;-78
2024/02/06 05:54:49;;;;;;;;;;;;;;;7.72;100.00;99662.81;5037403;28;19921;-78
2024/02/06 05:57:23;;;;;;;;;;;;;;;7.71;100.00;99670.16;5038463;28;19932;-78
2024/02/06 05:59:56;;;;;;;;;;;;;;;7.73;100.00;99667.16;5021062;28;19932;-79
2024/02/06 06:02:31;;;;;;;;;;;;;;;7.77;100.00;99658.16;5038719;28;19929;-78
2024/02/06 06:05:04;;;;;;;;;;;;;;;7.80;100.00;99663.03;5037608;28;20910;-78
2024/02/06 06:07:37;;;;;;;;;;;;;;;7.76;100.00;99661.97;5020853;28;20377;-78
2024/02/06 06:10:07;;;;;;;;;;;;;;;7.77;100.00;99657.38;5022587;28;19924;-78
2024/02/06 06:12:40;;;;;;;;;;;;;;;7.74;100.00;99656.03;5036344;28;19925;-78
2024/02/06 06:15:15;;;;;;;;;;;;;;;7.74;100.00;99657.94;5035717;28;19932;-78
2024/02/06 06:17:47;;;;;;;;;;;;;;;7.74;100.00;99647.91;5053913;28;19929;-79
2024/02/06 06:20:21;;;;;;;;;;;;;;;7.78;100.00;99648.94;5024986;28;20262;-78
2024/02/06 06:22:54;;;;;;;;;;;;;;;7.78;100.00;99637.31;5037760;28;19932;-79
2024/02/06 06:25:30;;;;;;;;;;;;;;;7.76;100.00;99639.50;5032759;28;19929;-78
2024/02/06 06:27:58;;;;;;;;;;;;;;;7.77;100.00;99633.78;5018167;28;19936;-78
2024/02/06 06:30:30;;;;;;;;;;;;;;;7.85;100.00;99635.06;5032673;28;19929;-78
2024/02/06 06:33:04;;;;;;;;;;;;;;;7.76;100.00;99621.34;5034943;28;19927;-79
2024/02/06 06:35:37;;;;;;;;;;;;;;;7.92;100.00;99635.53;5036254;28;19936;-78
2024/02/06 06:38:10;;;;;;;;;;;;;;;7.87;100.00;99634.78;5021588;28;19940;-78
2024/02/06 06:40:45;;;;;;;;;;;;;;;7.82;100.00;99625.63;5037321;28;19927;-78
2024/02/06 06:43:18;;;;;;;;;;;;;;;7.85;100.00;99631.56;5034880;28;20301;-78
2024/02/06 06:45:51;;;;;;;;;;;;;;;7.85;100.00;99621.53;5022153;28;20277;-78
2024/02/06 06:48:19;;;;;;;;;;;;;;;7.82;100.00;99624.81;5036533;28;19929;-78
2024/02/06 06:50:46;;;;;;;;;;;;;;;7.86;100.00;99619.63;5037263;28;20408;-78
2024/02/06 06:53:19;;;;;;;;;;;;;;;7.87;100.00;99622.06;5033674;28;19924;-78
2024/02/06 06:55:49;;;;;;;;;;;;;;;7.92;100.00;99616.56;5033505;28;19936;-78
2024/02/06 06:58:24;;;;;;;;;;;;;;;7.89;100.00;99625.28;5032790;28;19932;-78
2024/02/06 07:01:00;;;;;;;;;;;;;;;7.92;100.00;99621.19;5033513;28;20532;-78
2024/02/06 07:03:34;;;;;;;;;;;;;;;7.85;100.00;99616.09;4969502;28;19940;-78
2024/02/06 07:06:07;;;;;;;;;;;;;;;7.94;100.00;99624.41;5008600;28;19925;-78
2024/02/06 07:08:43;;;;;;;;;;;;;;;7.96;100.00;99624.94;5003041;28;19979;-78
2024/02/06 07:11:19;;;;;;;;;;;;;;;7.95;100.00;99623.31;5012598;28;19928;-78
2024/02/06 07:13:53;;;;;;;;;;;;;;;7.95;100.00;99626.03;5001143;28;21112;-78
2024/02/06 07:16:21;;;;;;;;;;;;;;;7.89;100.00;99624.47;5020041;28;19936;-78
2024/02/06 07:18:49;;;;;;;;;;;;;;;7.93;100.00;99620.09;5034661;28;19928;-78
2024/02/06 07:21:22;;;;;;;;;;;;;;;7.91;100.00;99631.22;5022021;28;19936;-78
2024/02/06 07:23:50;;;;;;;;;;;;;;;7.82;100.00;99619.41;5026593;28;19928;-78
2024/02/06 07:26:25;;;;;;;;;;;;;;;7.69;100.00;99620.88;5007578;28;19928;-78
2024/02/06 07:28:52;;;;;;;;;;;;;;;7.65;100.00;99623.38;5023752;28;19935;-79
2024/02/06 07:31:21;;;;;;;;;;;;;;;7.67;100.00;99628.50;5003221;28;19935;-79
2024/02/06 07:33:49;;;;;;;;;;;;;;;7.63;100.00;99622.81;5005112;28;20271;-79
2024/02/06 07:36:29;;;;;;;;;;;;;;;7.61;100.00;99625.03;5005944;28;20550;-79
2024/02/06 07:39:00;;;;;;;;;;;;;;;7.60;100.00;99623.41;5004763;28;19928;-79
2024/02/06 07:41:30;;;;;;;;;;;;;;;7.61;100.00;99616.06;5016326;28;19936;-79
2024/02/06 07:43:59;;;;;;;;;;;;;;;7.61;100.00;99618.78;5017864;28;19924;-79
2024/02/06 07:46:33;;;;;;;;;;;;;;;7.61;100.00;99616.91;5021632;28;19928;-79
2024/02/06 07:49:00;;;;;;;;;;;;;;;7.62;100.00;99625.81;5019673;28;19929;-79
2024/02/06 07:51:28;;;;;;;;;;;;;;;7.64;100.00;99615.53;5007586;28;19928;-79
2024/02/06 07:54:03;;;;;;;;;;;;;;;7.62;100.00;99613.09;5031410;28;19925;-82
2024/02/06 07:56:38;;;;;;;;;;;;;;;7.66;100.00;99605.19;5007080;28;20404;-79
2024/02/06 07:59:13;;;;;;;;;;;;;;;7.59;100.00;99604.75;5005096;28;19928;-79
2024/02/06 08:01:47;;;;;;;;;;;;;;;7.60;100.00;99604.44;5001756;28;21894;-79
2024/02/06 08:04:15;;;;;;;;;;;;;;;7.62;100.00;99604.16;5011453;28;19936;-79
2024/02/06 08:06:43;;;;;;;;;;;;;;;7.60;100.00;99607.16;4997349;28;19928;-79
2024/02/06 08:09:18;;;;;;;;;;;;;;;7.56;100.00;99614.25;5039960;28;20851;-79
2024/02/06 08:11:54;;;;;;;;;;;;;;;7.63;100.00;99603.06;5011803;28;19928;-79
2024/02/06 08:14:27;;;;;;;;;;;;;;;7.68;100.00;99603.03;5003983;28;19928;-79
2024/02/06 08:16:56;;;;;;;;;;;;;;;7.63;100.00;99603.06;5021231;28;19936;-79
2024/02/06 08:19:26;;;;;;;;;;;;;;;7.60;100.00;99596.31;5023596;28;19929;-79
2024/02/06 08:21:59;;;;;;;;;;;;;;;7.65;100.00;99592.75;4999453;28;19929;-78
2024/02/06 08:24:32;;;;;;;;;;;;;;;7.63;100.00;99594.94;5024623;28;19925;-78
2024/02/06 08:27:06;;;;;;;;;;;;;;;7.66;100.00;99589.78;5017795;28;19921;-78
2024/02/06 08:29:40;;;;;;;;;;;;;;;7.69;100.00;99591.09;5007016;28;19936;-78
2024/02/06 08:32:09;;;;;;;;;;;;;;;7.71;100.00;99582.69;5017937;28;19935;-79
2024/02/06 08:34:37;;;;;;;;;;;;;;;7.71;100.00;99582.69;5035222;28;19924;-79
2024/02/06 08:37:05;;;;;;;;;;;;;;;7.73;100.00;99586.69;5028363;28;19935;-79
2024/02/06 08:39:40;;;;;;;;;;;;;;;7.71;100.00;99559.13;5023709;28;20491;-79
2024/02/06 08:42:10;;;;;;;;;;;;;;;7.68;100.00;99577.84;5022256;28;19935;-80
2024/02/06 08:44:44;;;;;;;;;;;;;;;7.72;100.00;99559.91;5031975;28;20344;-78
2024/02/06 08:47:12;;;;;;;;;;;;;;;7.66;100.00;99573.53;5041271;28;19928;-78
2024/02/06 08:49:45;;;;;;;;;;;;;;;7.68;100.00;99575.13;5011662;28;20677;-79
2024/02/06 08:52:15;;;;;;;;;;;;;;;7.72;100.00;99582.41;5018352;28;19936;-78
2024/02/06 08:54:48;;;;;;;;;;;;;;;7.73;100.00;99575.88;5039127;28;19933;-78
2024/02/06 08:57:18;;;;;;;;;;;;;;;7.71;100.00;99567.25;5026948;28;19929;-79
2024/02/06 08:59:51;;;;;;;;;;;;;;;7.73;100.00;99561.53;5019828;28;19929;-78
2024/02/06 09:02:24;;;;;;;;;;;;;;;7.74;100.00;99563.16;4981178;28;19929;-78
2024/02/06 09:04:53;;;;;;;;;;;;;;;7.76;100.00;99545.53;5018329;28;19936;-79
2024/02/06 09:07:26;;;;;;;;;;;;;;;7.78;100.00;99556.06;5018368;28;19936;-79
2024/02/06 09:09:59;;;;;;;;;;;;;;;7.81;100.00;99545.44;5024410;28;19921;-78
2024/02/06 09:12:29;;;;;;;;;;;;;;;7.86;100.00;99551.91;5027705;28;20317;-78
2024/02/06 09:15:00;;;;;;;;;;;;;;;7.87;100.00;99548.94;5038410;28;19928;-79
2024/02/06 09:17:33;;;;;;;;;;;;;;;7.83;100.00;99547.88;5022576;28;19928;-79
2024/02/06 09:20:01;;;;;;;;;;;;;;;7.79;100.00;99544.94;5021865;28;20452;-78
2024/02/06 09:22:29;;;;;;;;;;;;;;;7.80;100.00;99556.56;5022230;28;20000;-79
2024/02/06 09:24:57;;;;;;;;;;;;;;;7.79;100.00;99536.03;5019981;28;19928;-79
2024/02/06 09:27:32;;;;;;;;;;;;;;;7.80;100.00;99546.56;5021148;28;20672;-78
2024/02/06 09:30:06;;;;;;;;;;;;;;;7.80;100.00;99549.28;5020480;28;20279;-78
2024/02/06 09:32:33;;;;;;;;;;;;;;;7.79;100.00;99547.66;5016658;28;19939;-79
2024/02/06 09:35:07;;;;;;;;;;;;;;;7.83;100.00;99554.09;5016010;28;19929;-78
2024/02/06 09:37:40;;;;;;;;;;;;;;;7.76;100.00;99542.00;5036654;28;20896;-79
2024/02/06 09:40:13;;;;;;;;;;;;;;;7.77;100.00;99540.91;5018156;28;19956;-79
2024/02/06 09:42:48;;;;;;;;;;;;;;;7.73;100.00;99537.97;5009591;28;19928;-79
2024/02/06 09:45:16;;;;;;;;;;;;;;;7.79;100.00;99544.16;5025290;28;20274;-79
2024/02/06 09:47:45;;;;;;;;;;;;;;;7.78;100.00;99551.44;5037897;28;19932;-79
2024/02/06 09:50:18;;;;;;;;;;;;;;;7.80;100.00;99535.72;5017444;28;19936;-79
2024/02/06 09:52:48;;;;;;;;;;;;;;;7.81;100.00;99545.44;5031385;28;19937;-79
2024/02/06 09:55:29;;;;;;;;;;;;;;;7.80;100.00;99543.03;5078991;27;19955;-80
2024/02/06 09:57:58;;;;;;;;;;;;;;;7.85;100.00;99536.75;5075645;28;19947;-80
2024/02/06 10:00:27;;;;;;;;;;;;;;;7.81;100.00;99531.91;5079261;28;19932;-80
2024/02/06 10:03:02;;;;;;;;;;;;;;;7.79;100.00;99534.09;5027077;28;19933;-80
2024/02/06 10:05:41;;;;;;;;;;;;;;;7.80;100.00;99524.06;5000206;28;19934;-80
2024/02/06 10:08:14;;;;;;;;;;;;;;;7.82;100.00;99533.53;5000566;28;20298;-77
2024/02/06 10:10:49;;;;;;;;;;;;;;;7.85;100.00;99523.22;4999078;28;21784;-77
2024/02/06 10:13:22;;;;;;;;;;;;;;;7.88;100.00;99518.00;4999511;28;19964;-78
2024/02/06 10:15:53;;;;;;;;;;;;;;;7.96;100.00;99513.88;5004304;28;19936;-77
2024/02/06 10:18:24;;;;;;;;;;;;;;;7.95;100.00;99521.16;5000645;28;19929;-77
2024/02/06 10:20:55;;;;;;;;;;;;;;;8.01;100.00;99511.09;5037167;28;19940;-77
2024/02/06 10:23:31;;;;;;;;;;;;;;;8.03;100.00;99521.63;5005472;28;19933;-77
2024/02/06 10:26:06;;;;;;;;;;;;;;;7.96;100.00;99517.38;5001457;28;19939;-77
2024/02/06 10:28:38;;;;;;;;;;;;;;;7.98;100.00;99504.34;5008056;28;19949;-77
2024/02/06 10:31:12;;;;;;;;;;;;;;;7.96;100.00;99527.41;5003053;28;19952;-78
2024/02/06 10:33:48;;;;;;;;;;;;;;;7.90;100.00;99502.28;5002899;28;20608;-78
2024/02/06 10:36:22;;;;;;;;;;;;;;;7.94;100.00;99507.91;5001255;28;19933;-78
2024/02/06 10:38:55;;;;;;;;;;;;;;;7.96;100.00;99495.69;5010241;28;19934;-78
2024/02/06 10:41:30;;;;;;;;;;;;;;;7.90;100.00;99499.56;5007493;28;19933;-79
2024/02/06 10:44:10;;;;;;;;;;;;;;;7.97;100.00;99493.81;5009791;28;19940;-78
2024/02/06 10:46:43;;;;;;;;;;;;;;;7.96;100.00;99497.59;4999727;28;19937;-78
2024/02/06 10:49:16;;;;;;;;;;;;;;;7.94;100.00;99488.94;5005992;28;19930;-78
2024/02/06 10:51:49;;;;;;;;;;;;;;;7.96;100.00;99495.69;5005827;28;20027;-77
2024/02/06 10:54:20;;;;;;;;;;;;;;;7.99;100.00;99468.00;5019027;28;19933;-78
2024/02/06 10:56:55;;;;;;;;;;;;;;;8.04;100.00;99477.16;5029137;28;20314;-78
2024/02/06 10:59:33;;;;;;;;;;;;;;;8.00;100.00;99477.75;5047385;28;19940;-78
2024/02/06 11:02:12;;;;;;;;;;;;;;;8.06;100.00;99472.28;4997301;28;19933;-78
2024/02/06 11:04:45;;;;;;;;;;;;;;;8.01;100.00;99459.63;5024509;28;19933;-78
2024/02/06 11:07:19;;;;;;;;;;;;;;;8.05;100.00;99457.94;5015496;28;20298;-78
2024/02/06 11:09:53;;;;;;;;;;;;;;;8.05;100.00;99467.94;5002268;28;19933;-78
2024/02/06 11:12:27;;;;;;;;;;;;;;;8.06;100.00;99456.81;4992401;28;19940;-78
2024/02/06 11:14:59;;;;;;;;;;;;;;;8.09;100.00;99466.25;4991724;28;19929;-78
2024/02/06 11:17:32;;;;;;;;;;;;;;;8.07;100.00;99449.50;5017619;28;19929;-78
2024/02/06 11:20:10;;;;;;;;;;;;;;;8.08;100.00;99449.22;4999173;28;21434;-78
2024/02/06 11:22:44;;;;;;;;;;;;;;;8.07;100.00;99450.31;5023436;28;20240;-79
2024/02/06 11:25:19;;;;;;;;;;;;;;;8.05;100.00;99443.56;5015627;28;19933;-78
2024/02/06 11:27:50;;;;;;;;;;;;;;;8.12;100.00;99430.44;5014100;28;19929;-78
2024/02/06 11:30:23;;;;;;;;;;;;;;;8.12;100.00;99431.25;5007896;28;19934;-78
2024/02/06 11:33:00;;;;;;;;;;;;;;;8.18;100.00;99430.06;4992307;28;19932;-78
2024/02/06 11:35:33;;;;;;;;;;;;;;;8.18;100.00;99429.28;4990330;28;20887;-78
2024/02/06 11:38:01;;;;;;;;;;;;;;;8.19;100.00;99420.06;5022513;28;19955;-78
2024/02/06 11:40:35;;;;;;;;;;;;;;;8.22;100.00;99419.47;5014181;28;19932;-78
2024/02/06 11:43:09;;;;;;;;;;;;;;;8.25;100.00;99418.06;5015100;28;19932;-78
2024/02/06 11:45:43;;;;;;;;;;;;;;;8.23;100.00;99412.13;5010354;28;19950;-78
2024/02/06 11:48:24;;;;;;;;;;;;;;;8.21;100.00;99408.91;5010530;28;19929;-79
2024/02/06 11:50:57;;;;;;;;;;;;;;;8.22;100.00;99410.53;5012004;28;19932;-78
2024/02/06 11:53:31;;;;;;;;;;;;;;;8.21;100.00;99400.78;5014485;28;19944;-78
2024/02/06 11:56:00;;;;;;;;;;;;;;;8.20;100.00;99410.00;5011276;28;19944;-78
2024/02/06 11:58:36;;;;;;;;;;;;;;;8.17;100.00;99398.69;4996437;28;19940;-78
2024/02/06 12:01:10;;;;;;;;;;;;;;;8.20;100.00;99396.47;5010413;28;19933;-78
2024/02/06 12:03:43;;;;;;;;;;;;;;;8.31;100.00;99390.59;4963192;28;19968;-78
2024/02/06 12:06:21;;;;;;;;;;;;;;;8.31;100.00;99390.59;5027213;28;19944;-78
2024/02/06 12:09:00;;;;;;;;;;;;;;;8.30;100.00;99380.03;4999143;28;19933;-78
2024/02/06 12:11:35;;;;;;;;;;;;;;;8.38;100.00;99405.66;4988853;28;19933;-78
2024/02/06 12:14:04;;;;;;;;;;;;;;;8.39;100.00;99389.09;5003121;28;19933;-78
2024/02/06 12:16:37;;;;;;;;;;;;;;;8.43;100.00;99389.31;5006883;28;19964;-78
2024/02/06 12:19:10;;;;;;;;;;;;;;;8.53;100.00;99389.16;5004932;28;19933;-77
2024/02/06 12:21:39;;;;;;;;;;;;;;;8.56;100.00;99372.31;5010283;28;19940;-84
2024/02/06 12:24:12;;;;;;;;;;;;;;;8.58;100.00;99378.22;5008068;28;19933;-79
2024/02/06 12:26:40;;;;;;;;;;;;;;;8.56;100.00;99368.78;5024887;28;19933;-78
2024/02/06 12:29:15;;;;;;;;;;;;;;;8.58;100.00;99361.16;4992407;28;19939;-78
2024/02/06 12:31:48;;;;;;;;;;;;;;;8.64;100.00;99357.25;5008778;28;19939;-79
2024/02/06 12:34:16;;;;;;;;;;;;;;;8.68;100.00;99366.38;5002856;28;19955;-78
2024/02/06 12:36:51;;;;;;;;;;;;;;;8.67;100.00;99356.63;5002330;28;19932;-78
2024/02/06 12:39:24;;;;;;;;;;;;;;;8.73;100.00;99349.22;5012628;28;19929;-78
2024/02/06 12:41:58;;;;;;;;;;;;;;;8.73;100.00;99341.91;5009173;28;19940;-79
2024/02/06 12:44:33;;;;;;;;;;;;;;;8.77;100.00;99342.09;5009291;28;19933;-78
2024/02/06 12:47:06;;;;;;;;;;;;;;;8.82;100.00;99339.28;5013641;28;19940;-79
2024/02/06 12:49:34;;;;;;;;;;;;;;;8.89;100.00;99345.09;5006571;28;19940;-79
2024/02/06 12:52:08;;;;;;;;;;;;;;;8.90;100.00;99325.00;5008492;28;20499;-78
2024/02/06 12:54:39;;;;;;;;;;;;;;;8.94;100.00;99330.66;4988522;28;19952;-78
2024/02/06 12:57:08;;;;;;;;;;;;;;;8.88;100.00;99312.84;4987756;28;19951;-79
2024/02/06 12:59:43;;;;;;;;;;;;;;;8.91;100.00;99329.34;5009104;28;20405;-78
2024/02/06 13:02:11;;;;;;;;;;;;;;;8.93;100.00;99320.91;4968480;28;19940;-79
2024/02/06 13:04:39;;;;;;;;;;;;;;;8.94;100.00;99308.94;5007997;28;19933;-78
2024/02/06 13:07:19;;;;;;;;;;;;;;;9.03;100.00;99315.25;5009706;28;19933;-78
2024/02/06 13:09:47;;;;;;;;;;;;;;;8.95;100.00;99310.53;4991241;28;19932;-78
2024/02/06 13:12:19;;;;;;;;;;;;;;;8.93;100.00;99308.13;5008745;28;19933;-79